sensor_id;sensor_type;location;lat;lon;timestamp;P1;durP1;ratioP1;P2;durP2;ratioP2
64826;SDS011;51265;53.972;12.286;2023-03-01T00:01:59;10.00;;;5.00;;
64826;SDS011;51265;53.972;12.286;2023-03-01T00:04:26;7.78;;;4.80;;
64826;SDS011;51265;53.972;12.286;2023-03-01T00:06:53;12.20;;;4.95;;
64826;SDS011;51265;53.972;12.286;2023-03-01T00:09:19;8.85;;;5.07;;
64826;SDS011;51265;53.972;12.286;2023-03-01T00:11:46;9.38;;;4.50;;
64826;SDS011;51265;53.972;12.286;2023-03-01T00:14:12;8.38;;;3.90;;
64826;SDS011;51265;53.972;12.286;2023-03-01T00:16:40;8.55;;;4.30;;
64826;SDS011;51265;53.972;12.286;2023-03-01T00:19:07;8.07;;;3.78;;
64826;SDS011;51265;53.972;12.286;2023-03-01T00:21:38;9.48;;;4.05;;
64826;SDS011;51265;53.972;12.286;2023-03-01T00:24:04;7.70;;;3.67;;
64826;SDS011;51265;53.972;12.286;2023-03-01T00:26:30;7.70;;;3.45;;
64826;SDS011;51265;53.972;12.286;2023-03-01T00:28:58;8.15;;;3.72;;
64826;SDS011;51265;53.972;12.286;2023-03-01T00:31:26;5.80;;;3.38;;
64826;SDS011;51265;53.972;12.286;2023-03-01T00:33:54;7.88;;;4.00;;
64826;SDS011;51265;53.972;12.286;2023-03-01T00:36:24;6.35;;;3.20;;
64826;SDS011;51265;53.972;12.286;2023-03-01T00:38:51;5.57;;;2.70;;
64826;SDS011;51265;53.972;12.286;2023-03-01T00:41:18;7.13;;;3.05;;
64826;SDS011;51265;53.972;12.286;2023-03-01T00:43:46;5.75;;;3.22;;
64826;SDS011;51265;53.972;12.286;2023-03-01T00:46:13;6.80;;;3.90;;
64826;SDS011;51265;53.972;12.286;2023-03-01T00:48:41;8.00;;;4.57;;
64826;SDS011;51265;53.972;12.286;2023-03-01T00:51:08;8.35;;;4.30;;
64826;SDS011;51265;53.972;12.286;2023-03-01T00:53:35;6.57;;;3.67;;
64826;SDS011;51265;53.972;12.286;2023-03-01T00:56:02;7.78;;;3.58;;
64826;SDS011;51265;53.972;12.286;2023-03-01T00:58:29;10.80;;;4.15;;
64826;SDS011;51265;53.972;12.286;2023-03-01T01:00:55;8.02;;;3.50;;
64826;SDS011;51265;53.972;12.286;2023-03-01T01:03:21;6.38;;;3.70;;
64826;SDS011;51265;53.972;12.286;2023-03-01T01:05:53;7.65;;;3.95;;
64826;SDS011;51265;53.972;12.286;2023-03-01T01:08:20;9.82;;;3.55;;
64826;SDS011;51265;53.972;12.286;2023-03-01T01:10:47;8.02;;;3.10;;
64826;SDS011;51265;53.972;12.286;2023-03-01T01:13:13;15.95;;;4.25;;
64826;SDS011;51265;53.972;12.286;2023-03-01T01:15:40;8.65;;;3.13;;
64826;SDS011;51265;53.972;12.286;2023-03-01T01:18:06;5.70;;;3.28;;
64826;SDS011;51265;53.972;12.286;2023-03-01T01:20:32;6.60;;;3.55;;
64826;SDS011;51265;53.972;12.286;2023-03-01T01:23:01;6.53;;;2.92;;
64826;SDS011;51265;53.972;12.286;2023-03-01T01:25:27;5.68;;;2.67;;
64826;SDS011;51265;53.972;12.286;2023-03-01T01:27:53;6.10;;;3.28;;
64826;SDS011;51265;53.972;12.286;2023-03-01T01:30:20;6.80;;;3.15;;
64826;SDS011;51265;53.972;12.286;2023-03-01T01:32:46;5.75;;;2.92;;
64826;SDS011;51265;53.972;12.286;2023-03-01T01:35:12;6.47;;;2.75;;
64826;SDS011;51265;53.972;12.286;2023-03-01T01:37:38;6.18;;;2.70;;
64826;SDS011;51265;53.972;12.286;2023-03-01T01:40:04;6.82;;;3.28;;
64826;SDS011;51265;53.972;12.286;2023-03-01T01:42:32;5.60;;;3.08;;
64826;SDS011;51265;53.972;12.286;2023-03-01T01:48:01;5.93;;;3.05;;
64826;SDS011;51265;53.972;12.286;2023-03-01T01:50:30;4.57;;;2.67;;
64826;SDS011;51265;53.972;12.286;2023-03-01T01:53:12;6.07;;;3.10;;
64826;SDS011;51265;53.972;12.286;2023-03-01T01:55:51;6.03;;;2.90;;
64826;SDS011;51265;53.972;12.286;2023-03-01T01:58:24;5.70;;;2.80;;
64826;SDS011;51265;53.972;12.286;2023-03-01T02:00:53;5.90;;;2.42;;
64826;SDS011;51265;53.972;12.286;2023-03-01T02:03:22;5.15;;;2.83;;
64826;SDS011;51265;53.972;12.286;2023-03-01T02:08:46;5.07;;;2.67;;
64826;SDS011;51265;53.972;12.286;2023-03-01T02:11:14;5.28;;;2.75;;
64826;SDS011;51265;53.972;12.286;2023-03-01T02:13:41;6.82;;;2.13;;
64826;SDS011;51265;53.972;12.286;2023-03-01T02:16:09;4.10;;;2.55;;
64826;SDS011;51265;53.972;12.286;2023-03-01T02:18:37;4.97;;;2.10;;
64826;SDS011;51265;53.972;12.286;2023-03-01T02:21:17;5.15;;;2.55;;
64826;SDS011;51265;53.972;12.286;2023-03-01T02:24:02;4.45;;;2.17;;
64826;SDS011;51265;53.972;12.286;2023-03-01T02:26:42;6.15;;;2.70;;
64826;SDS011;51265;53.972;12.286;2023-03-01T02:29:13;9.25;;;2.60;;
64826;SDS011;51265;53.972;12.286;2023-03-01T02:31:42;4.82;;;2.60;;
64826;SDS011;51265;53.972;12.286;2023-03-01T02:34:12;4.38;;;2.70;;
64826;SDS011;51265;53.972;12.286;2023-03-01T02:36:51;8.20;;;3.10;;
64826;SDS011;51265;53.972;12.286;2023-03-01T02:39:26;6.20;;;3.17;;
64826;SDS011;51265;53.972;12.286;2023-03-01T02:41:56;4.68;;;2.80;;
64826;SDS011;51265;53.972;12.286;2023-03-01T02:44:24;4.53;;;2.60;;
64826;SDS011;51265;53.972;12.286;2023-03-01T02:46:51;7.07;;;3.60;;
64826;SDS011;51265;53.972;12.286;2023-03-01T02:49:21;5.15;;;2.85;;
64826;SDS011;51265;53.972;12.286;2023-03-01T02:51:54;5.63;;;2.90;;
64826;SDS011;51265;53.972;12.286;2023-03-01T02:57:30;9.35;;;3.20;;
64826;SDS011;51265;53.972;12.286;2023-03-01T02:59:59;6.60;;;3.13;;
64826;SDS011;51265;53.972;12.286;2023-03-01T03:02:33;6.28;;;3.67;;
64826;SDS011;51265;53.972;12.286;2023-03-01T03:05:09;6.30;;;3.60;;
64826;SDS011;51265;53.972;12.286;2023-03-01T03:07:41;7.33;;;3.60;;
64826;SDS011;51265;53.972;12.286;2023-03-01T03:10:10;8.13;;;3.72;;
64826;SDS011;51265;53.972;12.286;2023-03-01T03:12:39;7.65;;;3.85;;
64826;SDS011;51265;53.972;12.286;2023-03-01T03:15:07;8.68;;;4.15;;
64826;SDS011;51265;53.972;12.286;2023-03-01T03:17:36;9.23;;;4.13;;
64826;SDS011;51265;53.972;12.286;2023-03-01T03:20:05;7.22;;;4.05;;
64826;SDS011;51265;53.972;12.286;2023-03-01T03:22:37;7.38;;;4.10;;
64826;SDS011;51265;53.972;12.286;2023-03-01T03:25:06;7.90;;;4.70;;
64826;SDS011;51265;53.972;12.286;2023-03-01T03:27:36;10.13;;;4.25;;
64826;SDS011;51265;53.972;12.286;2023-03-01T03:30:07;7.57;;;4.10;;
64826;SDS011;51265;53.972;12.286;2023-03-01T03:32:36;8.38;;;4.22;;
64826;SDS011;51265;53.972;12.286;2023-03-01T03:35:05;8.68;;;4.75;;
64826;SDS011;51265;53.972;12.286;2023-03-01T03:37:36;10.35;;;6.10;;
64826;SDS011;51265;53.972;12.286;2023-03-01T03:40:21;9.05;;;4.95;;
64826;SDS011;51265;53.972;12.286;2023-03-01T03:42:47;9.07;;;5.20;;
64826;SDS011;51265;53.972;12.286;2023-03-01T03:45:14;8.80;;;4.90;;
64826;SDS011;51265;53.972;12.286;2023-03-01T03:47:41;7.30;;;4.32;;
64826;SDS011;51265;53.972;12.286;2023-03-01T03:50:08;15.45;;;4.82;;
64826;SDS011;51265;53.972;12.286;2023-03-01T03:52:36;9.13;;;4.47;;
64826;SDS011;51265;53.972;12.286;2023-03-01T03:55:02;8.50;;;4.93;;
64826;SDS011;51265;53.972;12.286;2023-03-01T03:57:29;8.88;;;4.90;;
64826;SDS011;51265;53.972;12.286;2023-03-01T03:59:55;7.68;;;5.05;;
64826;SDS011;51265;53.972;12.286;2023-03-01T04:02:21;8.07;;;4.68;;
64826;SDS011;51265;53.972;12.286;2023-03-01T04:05:13;7.68;;;4.25;;
64826;SDS011;51265;53.972;12.286;2023-03-01T04:07:41;6.22;;;3.90;;
64826;SDS011;51265;53.972;12.286;2023-03-01T04:10:09;7.15;;;4.57;;
64826;SDS011;51265;53.972;12.286;2023-03-01T04:12:38;6.93;;;4.20;;
64826;SDS011;51265;53.972;12.286;2023-03-01T04:15:05;7.80;;;4.30;;
64826;SDS011;51265;53.972;12.286;2023-03-01T04:17:42;7.50;;;4.28;;
64826;SDS011;51265;53.972;12.286;2023-03-01T04:20:11;9.73;;;4.05;;
64826;SDS011;51265;53.972;12.286;2023-03-01T04:22:39;8.02;;;4.53;;
64826;SDS011;51265;53.972;12.286;2023-03-01T04:25:06;9.43;;;4.40;;
64826;SDS011;51265;53.972;12.286;2023-03-01T04:27:33;10.35;;;4.63;;
64826;SDS011;51265;53.972;12.286;2023-03-01T04:30:00;8.57;;;4.93;;
64826;SDS011;51265;53.972;12.286;2023-03-01T04:32:27;8.88;;;4.78;;
64826;SDS011;51265;53.972;12.286;2023-03-01T04:34:53;7.63;;;4.15;;
64826;SDS011;51265;53.972;12.286;2023-03-01T04:37:19;7.72;;;4.38;;
64826;SDS011;51265;53.972;12.286;2023-03-01T04:39:45;10.80;;;4.63;;
64826;SDS011;51265;53.972;12.286;2023-03-01T04:42:13;11.05;;;4.70;;
64826;SDS011;51265;53.972;12.286;2023-03-01T04:44:40;7.80;;;4.32;;
64826;SDS011;51265;53.972;12.286;2023-03-01T04:47:06;9.30;;;4.50;;
64826;SDS011;51265;53.972;12.286;2023-03-01T04:49:33;8.10;;;4.40;;
64826;SDS011;51265;53.972;12.286;2023-03-01T04:51:59;8.27;;;4.32;;
64826;SDS011;51265;53.972;12.286;2023-03-01T04:54:28;7.50;;;4.32;;
64826;SDS011;51265;53.972;12.286;2023-03-01T04:56:55;9.60;;;4.18;;
64826;SDS011;51265;53.972;12.286;2023-03-01T04:59:24;6.88;;;4.22;;
64826;SDS011;51265;53.972;12.286;2023-03-01T05:01:51;8.77;;;4.28;;
64826;SDS011;51265;53.972;12.286;2023-03-01T05:04:18;7.10;;;4.28;;
64826;SDS011;51265;53.972;12.286;2023-03-01T05:06:44;7.60;;;4.30;;
64826;SDS011;51265;53.972;12.286;2023-03-01T05:09:10;7.57;;;4.10;;
64826;SDS011;51265;53.972;12.286;2023-03-01T05:11:37;9.57;;;4.43;;
64826;SDS011;51265;53.972;12.286;2023-03-01T05:14:07;9.77;;;4.38;;
64826;SDS011;51265;53.972;12.286;2023-03-01T05:16:34;9.45;;;4.90;;
64826;SDS011;51265;53.972;12.286;2023-03-01T05:19:02;11.55;;;4.57;;
64826;SDS011;51265;53.972;12.286;2023-03-01T05:21:37;8.23;;;4.40;;
64826;SDS011;51265;53.972;12.286;2023-03-01T05:24:28;8.23;;;4.50;;
64826;SDS011;51265;53.972;12.286;2023-03-01T05:26:54;10.95;;;4.57;;
64826;SDS011;51265;53.972;12.286;2023-03-01T05:29:21;8.95;;;4.88;;
64826;SDS011;51265;53.972;12.286;2023-03-01T05:31:51;7.28;;;4.32;;
64826;SDS011;51265;53.972;12.286;2023-03-01T05:34:18;10.45;;;5.57;;
64826;SDS011;51265;53.972;12.286;2023-03-01T05:36:45;11.85;;;5.25;;
64826;SDS011;51265;53.972;12.286;2023-03-01T05:39:11;9.07;;;4.68;;
64826;SDS011;51265;53.972;12.286;2023-03-01T05:41:37;9.63;;;4.45;;
64826;SDS011;51265;53.972;12.286;2023-03-01T05:44:06;7.95;;;4.05;;
64826;SDS011;51265;53.972;12.286;2023-03-01T05:46:32;8.15;;;4.20;;
64826;SDS011;51265;53.972;12.286;2023-03-01T05:48:59;7.50;;;4.25;;
64826;SDS011;51265;53.972;12.286;2023-03-01T05:51:26;8.18;;;4.57;;
64826;SDS011;51265;53.972;12.286;2023-03-01T05:53:52;8.35;;;4.85;;
64826;SDS011;51265;53.972;12.286;2023-03-01T05:56:18;8.65;;;4.40;;
64826;SDS011;51265;53.972;12.286;2023-03-01T05:58:44;9.88;;;4.80;;
64826;SDS011;51265;53.972;12.286;2023-03-01T06:01:11;7.10;;;3.95;;
64826;SDS011;51265;53.972;12.286;2023-03-01T06:03:38;8.15;;;4.25;;
64826;SDS011;51265;53.972;12.286;2023-03-01T06:06:04;8.45;;;4.40;;
64826;SDS011;51265;53.972;12.286;2023-03-01T06:08:31;9.98;;;4.30;;
64826;SDS011;51265;53.972;12.286;2023-03-01T06:10:57;8.50;;;3.92;;
64826;SDS011;51265;53.972;12.286;2023-03-01T06:13:23;7.57;;;4.00;;
64826;SDS011;51265;53.972;12.286;2023-03-01T06:15:50;8.73;;;4.03;;
64826;SDS011;51265;53.972;12.286;2023-03-01T06:18:17;9.40;;;4.30;;
64826;SDS011;51265;53.972;12.286;2023-03-01T06:20:43;7.30;;;4.03;;
64826;SDS011;51265;53.972;12.286;2023-03-01T06:23:09;7.45;;;4.45;;
64826;SDS011;51265;53.972;12.286;2023-03-01T06:25:36;9.25;;;4.05;;
64826;SDS011;51265;53.972;12.286;2023-03-01T06:28:03;7.82;;;4.18;;
64826;SDS011;51265;53.972;12.286;2023-03-01T06:30:30;8.82;;;5.07;;
64826;SDS011;51265;53.972;12.286;2023-03-01T06:32:56;6.60;;;3.88;;
64826;SDS011;51265;53.972;12.286;2023-03-01T06:35:26;9.15;;;4.40;;
64826;SDS011;51265;53.972;12.286;2023-03-01T06:37:55;7.38;;;4.55;;
64826;SDS011;51265;53.972;12.286;2023-03-01T06:40:23;10.40;;;4.53;;
64826;SDS011;51265;53.972;12.286;2023-03-01T06:42:49;7.93;;;4.80;;
64826;SDS011;51265;53.972;12.286;2023-03-01T06:45:16;12.85;;;5.80;;
64826;SDS011;51265;53.972;12.286;2023-03-01T06:47:44;8.02;;;4.88;;
64826;SDS011;51265;53.972;12.286;2023-03-01T06:50:11;9.00;;;4.85;;
64826;SDS011;51265;53.972;12.286;2023-03-01T06:52:38;9.02;;;5.22;;
64826;SDS011;51265;53.972;12.286;2023-03-01T06:55:04;9.38;;;5.45;;
64826;SDS011;51265;53.972;12.286;2023-03-01T06:57:32;8.10;;;4.75;;
64826;SDS011;51265;53.972;12.286;2023-03-01T06:59:58;8.73;;;4.60;;
64826;SDS011;51265;53.972;12.286;2023-03-01T07:02:24;9.63;;;5.47;;
64826;SDS011;51265;53.972;12.286;2023-03-01T07:04:50;9.05;;;5.28;;
64826;SDS011;51265;53.972;12.286;2023-03-01T07:07:17;10.32;;;5.78;;
64826;SDS011;51265;53.972;12.286;2023-03-01T07:09:44;12.07;;;5.53;;
64826;SDS011;51265;53.972;12.286;2023-03-01T07:12:11;8.50;;;5.20;;
64826;SDS011;51265;53.972;12.286;2023-03-01T07:14:37;8.55;;;4.85;;
64826;SDS011;51265;53.972;12.286;2023-03-01T07:17:03;9.65;;;5.50;;
64826;SDS011;51265;53.972;12.286;2023-03-01T07:19:30;8.98;;;5.20;;
64826;SDS011;51265;53.972;12.286;2023-03-01T07:21:56;11.52;;;5.88;;
64826;SDS011;51265;53.972;12.286;2023-03-01T07:24:22;12.30;;;5.63;;
64826;SDS011;51265;53.972;12.286;2023-03-01T07:26:49;11.38;;;6.00;;
64826;SDS011;51265;53.972;12.286;2023-03-01T07:29:16;11.88;;;6.28;;
64826;SDS011;51265;53.972;12.286;2023-03-01T07:31:43;11.23;;;5.95;;
64826;SDS011;51265;53.972;12.286;2023-03-01T07:34:09;11.98;;;6.65;;
64826;SDS011;51265;53.972;12.286;2023-03-01T07:36:37;9.05;;;5.75;;
64826;SDS011;51265;53.972;12.286;2023-03-01T07:39:03;11.80;;;6.68;;
64826;SDS011;51265;53.972;12.286;2023-03-01T07:41:29;12.02;;;6.70;;
64826;SDS011;51265;53.972;12.286;2023-03-01T07:43:55;13.30;;;6.75;;
64826;SDS011;51265;53.972;12.286;2023-03-01T07:46:22;11.73;;;6.40;;
64826;SDS011;51265;53.972;12.286;2023-03-01T07:48:48;12.02;;;6.60;;
64826;SDS011;51265;53.972;12.286;2023-03-01T07:51:14;13.95;;;6.80;;
64826;SDS011;51265;53.972;12.286;2023-03-01T07:53:40;12.32;;;7.07;;
64826;SDS011;51265;53.972;12.286;2023-03-01T07:56:07;12.98;;;7.22;;
64826;SDS011;51265;53.972;12.286;2023-03-01T07:58:38;12.05;;;7.10;;
64826;SDS011;51265;53.972;12.286;2023-03-01T08:01:08;12.50;;;6.30;;
64826;SDS011;51265;53.972;12.286;2023-03-01T08:03:37;14.45;;;7.35;;
64826;SDS011;51265;53.972;12.286;2023-03-01T08:06:05;11.82;;;6.85;;
64826;SDS011;51265;53.972;12.286;2023-03-01T08:08:33;11.35;;;6.60;;
64826;SDS011;51265;53.972;12.286;2023-03-01T08:11:00;11.18;;;6.38;;
64826;SDS011;51265;53.972;12.286;2023-03-01T08:13:27;13.35;;;7.00;;
64826;SDS011;51265;53.972;12.286;2023-03-01T08:15:54;15.40;;;7.80;;
64826;SDS011;51265;53.972;12.286;2023-03-01T08:18:26;11.48;;;7.13;;
64826;SDS011;51265;53.972;12.286;2023-03-01T08:20:52;11.20;;;6.63;;
64826;SDS011;51265;53.972;12.286;2023-03-01T08:23:18;13.95;;;7.40;;
64826;SDS011;51265;53.972;12.286;2023-03-01T08:25:44;14.40;;;7.60;;
64826;SDS011;51265;53.972;12.286;2023-03-01T08:28:10;16.13;;;8.23;;
64826;SDS011;51265;53.972;12.286;2023-03-01T08:30:37;13.27;;;8.27;;
64826;SDS011;51265;53.972;12.286;2023-03-01T08:33:03;15.00;;;8.18;;
64826;SDS011;51265;53.972;12.286;2023-03-01T08:35:29;18.10;;;8.13;;
64826;SDS011;51265;53.972;12.286;2023-03-01T08:37:56;18.55;;;8.80;;
64826;SDS011;51265;53.972;12.286;2023-03-01T08:40:22;16.60;;;9.70;;
64826;SDS011;51265;53.972;12.286;2023-03-01T08:42:48;16.20;;;9.25;;
64826;SDS011;51265;53.972;12.286;2023-03-01T08:45:14;18.25;;;10.43;;
64826;SDS011;51265;53.972;12.286;2023-03-01T08:47:44;26.85;;;11.18;;
64826;SDS011;51265;53.972;12.286;2023-03-01T08:50:11;19.42;;;10.98;;
64826;SDS011;51265;53.972;12.286;2023-03-01T08:52:37;22.58;;;10.90;;
64826;SDS011;51265;53.972;12.286;2023-03-01T08:55:03;22.20;;;12.18;;
64826;SDS011;51265;53.972;12.286;2023-03-01T08:57:30;19.10;;;11.60;;
64826;SDS011;51265;53.972;12.286;2023-03-01T08:59:56;20.83;;;11.30;;
64826;SDS011;51265;53.972;12.286;2023-03-01T09:02:22;21.90;;;11.35;;
64826;SDS011;51265;53.972;12.286;2023-03-01T09:04:48;20.90;;;11.23;;
64826;SDS011;51265;53.972;12.286;2023-03-01T09:07:17;23.67;;;12.40;;
64826;SDS011;51265;53.972;12.286;2023-03-01T09:09:43;21.05;;;11.25;;
64826;SDS011;51265;53.972;12.286;2023-03-01T09:12:10;22.58;;;11.25;;
64826;SDS011;51265;53.972;12.286;2023-03-01T09:14:36;25.85;;;13.85;;
64826;SDS011;51265;53.972;12.286;2023-03-01T09:17:04;28.50;;;14.13;;
64826;SDS011;51265;53.972;12.286;2023-03-01T09:19:30;24.50;;;14.10;;
64826;SDS011;51265;53.972;12.286;2023-03-01T09:21:56;27.05;;;14.00;;
64826;SDS011;51265;53.972;12.286;2023-03-01T09:24:24;31.20;;;14.93;;
64826;SDS011;51265;53.972;12.286;2023-03-01T09:26:52;24.98;;;13.07;;
64826;SDS011;51265;53.972;12.286;2023-03-01T09:29:19;28.95;;;15.00;;
64826;SDS011;51265;53.972;12.286;2023-03-01T09:31:46;30.15;;;14.00;;
64826;SDS011;51265;53.972;12.286;2023-03-01T09:34:12;24.75;;;13.88;;
64826;SDS011;51265;53.972;12.286;2023-03-01T09:36:41;25.67;;;14.50;;
64826;SDS011;51265;53.972;12.286;2023-03-01T09:39:07;29.85;;;15.20;;
64826;SDS011;51265;53.972;12.286;2023-03-01T09:46:49;27.45;;;15.13;;
64826;SDS011;51265;53.972;12.286;2023-03-01T09:49:17;30.13;;;15.07;;
64826;SDS011;51265;53.972;12.286;2023-03-01T09:51:54;27.52;;;14.43;;
64826;SDS011;51265;53.972;12.286;2023-03-01T09:54:23;28.88;;;16.50;;
64826;SDS011;51265;53.972;12.286;2023-03-01T09:56:56;33.13;;;17.20;;
64826;SDS011;51265;53.972;12.286;2023-03-01T09:59:33;35.50;;;18.15;;
64826;SDS011;51265;53.972;12.286;2023-03-01T10:02:23;30.80;;;17.30;;
64826;SDS011;51265;53.972;12.286;2023-03-01T10:10:35;30.17;;;16.55;;
64826;SDS011;51265;53.972;12.286;2023-03-01T10:13:15;36.92;;;18.23;;
64826;SDS011;51265;53.972;12.286;2023-03-01T10:15:53;34.63;;;18.35;;
64826;SDS011;51265;53.972;12.286;2023-03-01T10:18:25;35.78;;;18.00;;
64826;SDS011;51265;53.972;12.286;2023-03-01T10:21:01;33.72;;;17.35;;
64826;SDS011;51265;53.972;12.286;2023-03-01T10:23:32;32.38;;;17.85;;
64826;SDS011;51265;53.972;12.286;2023-03-01T10:26:10;38.40;;;18.63;;
64826;SDS011;51265;53.972;12.286;2023-03-01T10:31:33;38.55;;;18.52;;
64826;SDS011;51265;53.972;12.286;2023-03-01T10:34:07;31.67;;;17.13;;
64826;SDS011;51265;53.972;12.286;2023-03-01T10:36:36;36.58;;;18.10;;
64826;SDS011;51265;53.972;12.286;2023-03-01T10:39:10;38.08;;;19.23;;
64826;SDS011;51265;53.972;12.286;2023-03-01T10:41:59;42.45;;;21.58;;
64826;SDS011;51265;53.972;12.286;2023-03-01T10:44:37;34.65;;;18.20;;
64826;SDS011;51265;53.972;12.286;2023-03-01T10:47:20;41.05;;;20.38;;
64826;SDS011;51265;53.972;12.286;2023-03-01T10:52:27;39.05;;;22.60;;
64826;SDS011;51265;53.972;12.286;2023-03-01T10:55:01;40.33;;;20.52;;
64826;SDS011;51265;53.972;12.286;2023-03-01T11:00:14;39.17;;;21.58;;
64826;SDS011;51265;53.972;12.286;2023-03-01T11:03:01;37.00;;;20.23;;
64826;SDS011;51265;53.972;12.286;2023-03-01T11:05:35;39.58;;;22.65;;
64826;SDS011;51265;53.972;12.286;2023-03-01T11:08:02;40.50;;;22.35;;
64826;SDS011;51265;53.972;12.286;2023-03-01T11:10:29;38.20;;;20.90;;
64826;SDS011;51265;53.972;12.286;2023-03-01T11:13:16;42.00;;;22.05;;
64826;SDS011;51265;53.972;12.286;2023-03-01T11:16:05;44.88;;;21.95;;
64826;SDS011;51265;53.972;12.286;2023-03-01T11:18:36;50.50;;;22.50;;
64826;SDS011;51265;53.972;12.286;2023-03-01T11:21:02;38.78;;;21.25;;
64826;SDS011;51265;53.972;12.286;2023-03-01T11:23:29;43.80;;;21.83;;
64826;SDS011;51265;53.972;12.286;2023-03-01T11:25:58;38.45;;;19.45;;
64826;SDS011;51265;53.972;12.286;2023-03-01T11:28:31;42.20;;;21.52;;
64826;SDS011;51265;53.972;12.286;2023-03-01T11:31:00;42.95;;;22.45;;
64826;SDS011;51265;53.972;12.286;2023-03-01T11:39:14;39.78;;;20.40;;
64826;SDS011;51265;53.972;12.286;2023-03-01T11:42:23;34.42;;;18.30;;
64826;SDS011;51265;53.972;12.286;2023-03-01T11:44:59;35.42;;;18.02;;
64826;SDS011;51265;53.972;12.286;2023-03-01T11:53:13;42.42;;;20.48;;
64826;SDS011;51265;53.972;12.286;2023-03-01T12:01:49;43.60;;;21.13;;
64826;SDS011;51265;53.972;12.286;2023-03-01T12:04:48;42.13;;;20.13;;
64826;SDS011;51265;53.972;12.286;2023-03-01T12:07:35;43.75;;;19.23;;
64826;SDS011;51265;53.972;12.286;2023-03-01T12:13:13;44.35;;;20.95;;
64826;SDS011;51265;53.972;12.286;2023-03-01T12:21:29;60.08;;;25.17;;
64826;SDS011;51265;53.972;12.286;2023-03-01T12:29:45;58.97;;;26.83;;
64826;SDS011;51265;53.972;12.286;2023-03-01T12:35:11;57.42;;;25.85;;
64826;SDS011;51265;53.972;12.286;2023-03-01T12:40:46;54.55;;;25.52;;
64826;SDS011;51265;53.972;12.286;2023-03-01T12:43:51;55.53;;;25.80;;
64826;SDS011;51265;53.972;12.286;2023-03-01T12:46:50;51.85;;;24.25;;
64826;SDS011;51265;53.972;12.286;2023-03-01T12:49:20;57.10;;;23.98;;
64826;SDS011;51265;53.972;12.286;2023-03-01T12:51:56;59.33;;;25.80;;
64826;SDS011;51265;53.972;12.286;2023-03-01T12:54:31;53.05;;;25.65;;
64826;SDS011;51265;53.972;12.286;2023-03-01T12:59:43;50.17;;;23.60;;
64826;SDS011;51265;53.972;12.286;2023-03-01T13:02:34;54.78;;;25.02;;
64826;SDS011;51265;53.972;12.286;2023-03-01T13:05:08;58.30;;;26.80;;
64826;SDS011;51265;53.972;12.286;2023-03-01T13:07:55;51.38;;;24.85;;
64826;SDS011;51265;53.972;12.286;2023-03-01T13:10:41;57.17;;;25.80;;
64826;SDS011;51265;53.972;12.286;2023-03-01T13:13:21;57.83;;;25.08;;
64826;SDS011;51265;53.972;12.286;2023-03-01T13:15:49;64.28;;;26.38;;
64826;SDS011;51265;53.972;12.286;2023-03-01T13:20:50;51.95;;;24.70;;
64826;SDS011;51265;53.972;12.286;2023-03-01T13:23:24;52.63;;;25.83;;
64826;SDS011;51265;53.972;12.286;2023-03-01T13:31:00;53.67;;;25.35;;
64826;SDS011;51265;53.972;12.286;2023-03-01T13:35:54;48.88;;;24.67;;
64826;SDS011;51265;53.972;12.286;2023-03-01T13:41:17;48.97;;;24.00;;
64826;SDS011;51265;53.972;12.286;2023-03-01T13:47:06;51.17;;;24.35;;
64826;SDS011;51265;53.972;12.286;2023-03-01T13:55:04;53.15;;;24.10;;
64826;SDS011;51265;53.972;12.286;2023-03-01T13:57:40;50.45;;;22.85;;
64826;SDS011;51265;53.972;12.286;2023-03-01T14:03:18;57.83;;;25.92;;
64826;SDS011;51265;53.972;12.286;2023-03-01T14:08:32;52.63;;;23.20;;
64826;SDS011;51265;53.972;12.286;2023-03-01T14:14:09;49.55;;;23.55;;
64826;SDS011;51265;53.972;12.286;2023-03-01T14:19:26;49.88;;;22.38;;
64826;SDS011;51265;53.972;12.286;2023-03-01T14:27:43;58.50;;;26.65;;
64826;SDS011;51265;53.972;12.286;2023-03-01T14:32:43;59.70;;;25.58;;
64826;SDS011;51265;53.972;12.286;2023-03-01T14:35:24;56.40;;;24.15;;
64826;SDS011;51265;53.972;12.286;2023-03-01T14:37:55;54.85;;;24.15;;
64826;SDS011;51265;53.972;12.286;2023-03-01T14:40:35;59.60;;;23.52;;
64826;SDS011;51265;53.972;12.286;2023-03-01T14:43:08;57.20;;;23.55;;
64826;SDS011;51265;53.972;12.286;2023-03-01T14:45:37;57.13;;;25.52;;
64826;SDS011;51265;53.972;12.286;2023-03-01T14:48:04;59.08;;;24.98;;
64826;SDS011;51265;53.972;12.286;2023-03-01T14:50:34;56.38;;;24.48;;
64826;SDS011;51265;53.972;12.286;2023-03-01T14:53:06;60.17;;;23.92;;
64826;SDS011;51265;53.972;12.286;2023-03-01T14:55:42;56.08;;;23.88;;
64826;SDS011;51265;53.972;12.286;2023-03-01T14:58:12;60.38;;;25.08;;
64826;SDS011;51265;53.972;12.286;2023-03-01T15:00:50;60.22;;;25.77;;
64826;SDS011;51265;53.972;12.286;2023-03-01T15:03:23;63.30;;;25.80;;
64826;SDS011;51265;53.972;12.286;2023-03-01T15:05:53;67.38;;;26.55;;
64826;SDS011;51265;53.972;12.286;2023-03-01T15:08:21;58.10;;;25.45;;
64826;SDS011;51265;53.972;12.286;2023-03-01T15:10:57;66.63;;;26.02;;
64826;SDS011;51265;53.972;12.286;2023-03-01T15:13:39;66.32;;;26.92;;
64826;SDS011;51265;53.972;12.286;2023-03-01T15:16:09;65.70;;;27.42;;
64826;SDS011;51265;53.972;12.286;2023-03-01T15:18:52;63.67;;;27.07;;
64826;SDS011;51265;53.972;12.286;2023-03-01T15:21:24;57.30;;;24.42;;
64826;SDS011;51265;53.972;12.286;2023-03-01T15:23:54;59.53;;;24.58;;
64826;SDS011;51265;53.972;12.286;2023-03-01T15:26:23;57.75;;;25.02;;
64826;SDS011;51265;53.972;12.286;2023-03-01T15:28:54;73.25;;;26.58;;
64826;SDS011;51265;53.972;12.286;2023-03-01T15:31:25;63.22;;;23.90;;
64826;SDS011;51265;53.972;12.286;2023-03-01T15:34:07;59.97;;;22.33;;
64826;SDS011;51265;53.972;12.286;2023-03-01T15:36:39;51.92;;;20.08;;
64826;SDS011;51265;53.972;12.286;2023-03-01T15:39:29;49.35;;;20.58;;
64826;SDS011;51265;53.972;12.286;2023-03-01T15:42:09;53.92;;;21.30;;
64826;SDS011;51265;53.972;12.286;2023-03-01T15:47:41;60.58;;;21.73;;
64826;SDS011;51265;53.972;12.286;2023-03-01T15:50:16;67.60;;;22.08;;
64826;SDS011;51265;53.972;12.286;2023-03-01T15:52:44;56.20;;;20.35;;
64826;SDS011;51265;53.972;12.286;2023-03-01T15:55:15;70.47;;;21.08;;
64826;SDS011;51265;53.972;12.286;2023-03-01T15:57:43;58.00;;;19.20;;
64826;SDS011;51265;53.972;12.286;2023-03-01T16:00:12;55.10;;;19.60;;
64826;SDS011;51265;53.972;12.286;2023-03-01T16:02:40;60.00;;;21.40;;
64826;SDS011;51265;53.972;12.286;2023-03-01T16:07:53;60.83;;;20.98;;
64826;SDS011;51265;53.972;12.286;2023-03-01T16:10:20;58.90;;;21.70;;
64826;SDS011;51265;53.972;12.286;2023-03-01T16:12:46;70.80;;;23.95;;
64826;SDS011;51265;53.972;12.286;2023-03-01T16:15:28;81.13;;;23.75;;
64826;SDS011;51265;53.972;12.286;2023-03-01T16:17:56;82.72;;;22.92;;
64826;SDS011;51265;53.972;12.286;2023-03-01T16:20:24;76.57;;;24.00;;
64826;SDS011;51265;53.972;12.286;2023-03-01T16:22:50;98.10;;;26.40;;
64826;SDS011;51265;53.972;12.286;2023-03-01T16:25:17;93.43;;;25.02;;
64826;SDS011;51265;53.972;12.286;2023-03-01T16:27:46;85.40;;;24.48;;
64826;SDS011;51265;53.972;12.286;2023-03-01T16:30:15;75.78;;;22.83;;
64826;SDS011;51265;53.972;12.286;2023-03-01T16:32:44;79.82;;;23.00;;
64826;SDS011;51265;53.972;12.286;2023-03-01T16:35:24;105.82;;;23.45;;